Terminal Aerodrome Forecast
Issued by NWS

Home | Current Version | Previous Version | Text Only | Print | Product List | Glossary On
Versions: 1 2 3 4 5 6 7 8 9 10 11 12 13 14 15 16 17 18 19
000
FTUS46 KMTR 022336
TAFSNS
TAF
KSNS 022336Z 0300/0324 28014G19KT P6SM FEW250
     FM030200 28010KT P6SM FEW250
     FM030600 28007KT P6SM SCT009
      TEMPO 0306/0310 BKN009
     FM031000 28007KT P6SM OVC009
     FM031700 29011KT P6SM FEW250=

USA.gov is the U.S. government's official web portal to all federal, state and local government web resources and services.